sensor_id;sensor_type;location;lat;lon;timestamp;P1;durP1;ratioP1;P2;durP2;ratioP2
15633;SDS011;14654;48.898;8.308;2023-08-17T00:00:26;3.40;;;2.83;;
15633;SDS011;14654;48.898;8.308;2023-08-17T00:02:51;3.20;;;3.00;;
15633;SDS011;14654;48.898;8.308;2023-08-17T00:05:17;3.00;;;2.70;;
15633;SDS011;14654;48.898;8.308;2023-08-17T00:07:42;4.33;;;3.03;;
15633;SDS011;14654;48.898;8.308;2023-08-17T00:10:08;3.23;;;2.93;;
15633;SDS011;14654;48.898;8.308;2023-08-17T00:12:33;4.57;;;2.73;;
15633;SDS011;14654;48.898;8.308;2023-08-17T00:14:59;3.13;;;2.73;;
15633;SDS011;14654;48.898;8.308;2023-08-17T00:17:24;3.50;;;3.20;;
15633;SDS011;14654;48.898;8.308;2023-08-17T00:19:49;3.10;;;2.90;;
15633;SDS011;14654;48.898;8.308;2023-08-17T00:22:15;3.40;;;3.00;;
15633;SDS011;14654;48.898;8.308;2023-08-17T00:24:41;3.53;;;2.97;;
15633;SDS011;14654;48.898;8.308;2023-08-17T00:27:09;3.57;;;3.27;;
15633;SDS011;14654;48.898;8.308;2023-08-17T00:29:34;3.40;;;3.10;;
15633;SDS011;14654;48.898;8.308;2023-08-17T00:32:00;3.60;;;3.30;;
15633;SDS011;14654;48.898;8.308;2023-08-17T00:34:26;3.30;;;2.90;;
15633;SDS011;14654;48.898;8.308;2023-08-17T00:36:51;3.97;;;2.97;;
15633;SDS011;14654;48.898;8.308;2023-08-17T00:39:17;3.37;;;2.80;;
15633;SDS011;14654;48.898;8.308;2023-08-17T00:41:42;2.80;;;2.60;;
15633;SDS011;14654;48.898;8.308;2023-08-17T00:44:07;3.53;;;3.23;;
15633;SDS011;14654;48.898;8.308;2023-08-17T00:46:33;3.90;;;2.80;;
15633;SDS011;14654;48.898;8.308;2023-08-17T00:48:58;3.97;;;2.77;;
15633;SDS011;14654;48.898;8.308;2023-08-17T00:51:24;3.70;;;3.03;;
15633;SDS011;14654;48.898;8.308;2023-08-17T00:53:51;3.03;;;2.77;;
15633;SDS011;14654;48.898;8.308;2023-08-17T00:56:18;3.03;;;2.60;;
15633;SDS011;14654;48.898;8.308;2023-08-17T00:58:43;3.33;;;3.03;;
15633;SDS011;14654;48.898;8.308;2023-08-17T01:01:08;3.37;;;3.00;;
15633;SDS011;14654;48.898;8.308;2023-08-17T01:03:34;3.27;;;2.97;;
15633;SDS011;14654;48.898;8.308;2023-08-17T01:05:59;2.90;;;2.57;;
15633;SDS011;14654;48.898;8.308;2023-08-17T01:08:27;2.77;;;2.50;;
15633;SDS011;14654;48.898;8.308;2023-08-17T01:13:44;3.27;;;2.77;;
15633;SDS011;14654;48.898;8.308;2023-08-17T01:16:16;3.17;;;2.93;;
15633;SDS011;14654;48.898;8.308;2023-08-17T01:18:49;2.80;;;2.60;;
15633;SDS011;14654;48.898;8.308;2023-08-17T01:21:16;4.50;;;3.23;;
15633;SDS011;14654;48.898;8.308;2023-08-17T01:23:46;3.40;;;2.97;;
15633;SDS011;14654;48.898;8.308;2023-08-17T01:26:14;3.50;;;3.20;;
15633;SDS011;14654;48.898;8.308;2023-08-17T01:28:41;2.80;;;2.40;;
15633;SDS011;14654;48.898;8.308;2023-08-17T01:31:14;4.67;;;2.60;;
15633;SDS011;14654;48.898;8.308;2023-08-17T01:33:50;3.23;;;2.60;;
15633;SDS011;14654;48.898;8.308;2023-08-17T01:36:26;3.50;;;2.83;;
15633;SDS011;14654;48.898;8.308;2023-08-17T01:38:57;5.10;;;2.93;;
15633;SDS011;14654;48.898;8.308;2023-08-17T01:41:25;5.83;;;2.80;;
15633;SDS011;14654;48.898;8.308;2023-08-17T01:43:51;4.10;;;2.57;;
15633;SDS011;14654;48.898;8.308;2023-08-17T01:46:18;2.77;;;2.13;;
15633;SDS011;14654;48.898;8.308;2023-08-17T01:48:44;3.30;;;2.90;;
15633;SDS011;14654;48.898;8.308;2023-08-17T01:51:11;6.37;;;2.80;;
15633;SDS011;14654;48.898;8.308;2023-08-17T01:53:38;3.43;;;3.13;;
15633;SDS011;14654;48.898;8.308;2023-08-17T01:56:04;3.50;;;3.20;;
15633;SDS011;14654;48.898;8.308;2023-08-17T01:58:29;3.53;;;3.20;;
15633;SDS011;14654;48.898;8.308;2023-08-17T02:00:54;3.93;;;3.07;;
15633;SDS011;14654;48.898;8.308;2023-08-17T02:03:20;2.80;;;2.50;;
15633;SDS011;14654;48.898;8.308;2023-08-17T02:05:45;3.73;;;2.90;;
15633;SDS011;14654;48.898;8.308;2023-08-17T02:08:11;2.80;;;2.50;;
15633;SDS011;14654;48.898;8.308;2023-08-17T02:10:37;3.37;;;3.00;;
15633;SDS011;14654;48.898;8.308;2023-08-17T02:13:02;2.90;;;2.70;;
15633;SDS011;14654;48.898;8.308;2023-08-17T02:15:27;3.37;;;3.00;;
15633;SDS011;14654;48.898;8.308;2023-08-17T02:17:53;3.30;;;3.00;;
15633;SDS011;14654;48.898;8.308;2023-08-17T02:20:18;4.07;;;3.37;;
15633;SDS011;14654;48.898;8.308;2023-08-17T02:22:44;4.40;;;3.23;;
15633;SDS011;14654;48.898;8.308;2023-08-17T02:25:09;3.30;;;2.87;;
15633;SDS011;14654;48.898;8.308;2023-08-17T02:27:34;4.60;;;3.20;;
15633;SDS011;14654;48.898;8.308;2023-08-17T02:30:00;3.73;;;3.43;;
15633;SDS011;14654;48.898;8.308;2023-08-17T02:32:25;3.27;;;2.97;;
15633;SDS011;14654;48.898;8.308;2023-08-17T02:34:50;6.63;;;3.27;;
15633;SDS011;14654;48.898;8.308;2023-08-17T02:37:16;3.63;;;3.33;;
15633;SDS011;14654;48.898;8.308;2023-08-17T02:39:41;4.23;;;3.10;;
15633;SDS011;14654;48.898;8.308;2023-08-17T02:42:06;5.40;;;3.23;;
15633;SDS011;14654;48.898;8.308;2023-08-17T02:44:32;3.30;;;2.90;;
15633;SDS011;14654;48.898;8.308;2023-08-17T02:46:57;3.17;;;2.97;;
15633;SDS011;14654;48.898;8.308;2023-08-17T02:49:22;4.10;;;3.03;;
15633;SDS011;14654;48.898;8.308;2023-08-17T02:51:47;3.87;;;3.00;;
15633;SDS011;14654;48.898;8.308;2023-08-17T02:54:13;3.33;;;2.77;;
15633;SDS011;14654;48.898;8.308;2023-08-17T02:56:38;4.03;;;3.10;;
15633;SDS011;14654;48.898;8.308;2023-08-17T02:59:03;4.10;;;3.20;;
15633;SDS011;14654;48.898;8.308;2023-08-17T03:01:29;5.97;;;3.30;;
15633;SDS011;14654;48.898;8.308;2023-08-17T03:03:55;5.97;;;3.30;;
15633;SDS011;14654;48.898;8.308;2023-08-17T03:06:20;3.63;;;3.33;;
15633;SDS011;14654;48.898;8.308;2023-08-17T03:08:45;3.80;;;2.80;;
15633;SDS011;14654;48.898;8.308;2023-08-17T03:11:11;3.07;;;2.73;;
15633;SDS011;14654;48.898;8.308;2023-08-17T03:13:36;3.20;;;2.67;;
15633;SDS011;14654;48.898;8.308;2023-08-17T03:16:02;4.07;;;2.90;;
15633;SDS011;14654;48.898;8.308;2023-08-17T03:18:27;3.47;;;3.00;;
15633;SDS011;14654;48.898;8.308;2023-08-17T03:20:52;4.43;;;3.07;;
15633;SDS011;14654;48.898;8.308;2023-08-17T03:23:18;3.50;;;3.00;;
15633;SDS011;14654;48.898;8.308;2023-08-17T03:25:43;3.20;;;2.90;;
15633;SDS011;14654;48.898;8.308;2023-08-17T03:28:10;3.43;;;2.53;;
15633;SDS011;14654;48.898;8.308;2023-08-17T03:30:36;3.67;;;3.33;;
15633;SDS011;14654;48.898;8.308;2023-08-17T03:33:01;3.33;;;3.03;;
15633;SDS011;14654;48.898;8.308;2023-08-17T03:35:26;3.50;;;3.20;;
15633;SDS011;14654;48.898;8.308;2023-08-17T03:37:52;3.33;;;2.60;;
15633;SDS011;14654;48.898;8.308;2023-08-17T03:40:17;3.03;;;2.70;;
15633;SDS011;14654;48.898;8.308;2023-08-17T03:42:42;2.80;;;2.60;;
15633;SDS011;14654;48.898;8.308;2023-08-17T03:45:08;3.40;;;2.50;;
15633;SDS011;14654;48.898;8.308;2023-08-17T03:47:33;2.97;;;2.67;;
15633;SDS011;14654;48.898;8.308;2023-08-17T03:49:58;2.90;;;2.40;;
15633;SDS011;14654;48.898;8.308;2023-08-17T03:52:24;3.10;;;2.90;;
15633;SDS011;14654;48.898;8.308;2023-08-17T03:54:49;3.10;;;2.80;;
15633;SDS011;14654;48.898;8.308;2023-08-17T03:57:14;3.00;;;2.70;;
15633;SDS011;14654;48.898;8.308;2023-08-17T03:59:40;3.80;;;3.50;;
15633;SDS011;14654;48.898;8.308;2023-08-17T04:02:06;3.80;;;3.23;;
15633;SDS011;14654;48.898;8.308;2023-08-17T04:04:31;3.67;;;3.37;;
15633;SDS011;14654;48.898;8.308;2023-08-17T04:06:57;3.70;;;3.40;;
15633;SDS011;14654;48.898;8.308;2023-08-17T04:09:22;4.73;;;3.63;;
15633;SDS011;14654;48.898;8.308;2023-08-17T04:11:47;4.13;;;3.40;;
15633;SDS011;14654;48.898;8.308;2023-08-17T04:14:13;4.30;;;3.90;;
15633;SDS011;14654;48.898;8.308;2023-08-17T04:16:39;4.53;;;4.13;;
15633;SDS011;14654;48.898;8.308;2023-08-17T04:19:04;4.00;;;3.60;;
15633;SDS011;14654;48.898;8.308;2023-08-17T04:21:30;4.10;;;3.70;;
15633;SDS011;14654;48.898;8.308;2023-08-17T04:23:55;4.13;;;3.60;;
15633;SDS011;14654;48.898;8.308;2023-08-17T04:26:20;3.83;;;3.53;;
15633;SDS011;14654;48.898;8.308;2023-08-17T04:28:46;3.77;;;3.47;;
15633;SDS011;14654;48.898;8.308;2023-08-17T04:31:11;5.27;;;3.70;;
15633;SDS011;14654;48.898;8.308;2023-08-17T04:33:37;5.00;;;4.00;;
15633;SDS011;14654;48.898;8.308;2023-08-17T04:36:02;4.57;;;3.70;;
15633;SDS011;14654;48.898;8.308;2023-08-17T04:38:28;3.33;;;3.03;;
15633;SDS011;14654;48.898;8.308;2023-08-17T04:40:53;3.63;;;3.33;;
15633;SDS011;14654;48.898;8.308;2023-08-17T04:43:18;3.93;;;3.50;;
15633;SDS011;14654;48.898;8.308;2023-08-17T04:45:44;4.93;;;4.13;;
15633;SDS011;14654;48.898;8.308;2023-08-17T04:48:12;3.97;;;3.60;;
15633;SDS011;14654;48.898;8.308;2023-08-17T04:50:38;5.63;;;4.00;;
15633;SDS011;14654;48.898;8.308;2023-08-17T04:53:03;3.90;;;3.43;;
15633;SDS011;14654;48.898;8.308;2023-08-17T04:55:28;4.60;;;4.00;;
15633;SDS011;14654;48.898;8.308;2023-08-17T04:57:54;3.80;;;3.50;;
15633;SDS011;14654;48.898;8.308;2023-08-17T05:00:20;5.13;;;3.30;;
15633;SDS011;14654;48.898;8.308;2023-08-17T05:02:50;3.47;;;3.07;;
15633;SDS011;14654;48.898;8.308;2023-08-17T05:05:15;4.10;;;3.30;;
15633;SDS011;14654;48.898;8.308;2023-08-17T05:07:41;4.43;;;3.23;;
15633;SDS011;14654;48.898;8.308;2023-08-17T05:10:06;3.43;;;2.97;;
15633;SDS011;14654;48.898;8.308;2023-08-17T05:12:32;3.50;;;3.20;;
15633;SDS011;14654;48.898;8.308;2023-08-17T05:14:57;4.57;;;3.77;;
15633;SDS011;14654;48.898;8.308;2023-08-17T05:17:22;4.70;;;3.57;;
15633;SDS011;14654;48.898;8.308;2023-08-17T05:19:48;4.83;;;4.07;;
15633;SDS011;14654;48.898;8.308;2023-08-17T05:22:13;5.57;;;3.97;;
15633;SDS011;14654;48.898;8.308;2023-08-17T05:24:39;4.90;;;4.37;;
15633;SDS011;14654;48.898;8.308;2023-08-17T05:27:04;4.20;;;3.80;;
15633;SDS011;14654;48.898;8.308;2023-08-17T05:29:30;4.70;;;4.30;;
15633;SDS011;14654;48.898;8.308;2023-08-17T05:31:59;4.80;;;4.30;;
15633;SDS011;14654;48.898;8.308;2023-08-17T05:34:24;4.03;;;3.70;;
15633;SDS011;14654;48.898;8.308;2023-08-17T05:36:50;3.93;;;3.63;;
15633;SDS011;14654;48.898;8.308;2023-08-17T05:39:15;4.40;;;4.00;;
15633;SDS011;14654;48.898;8.308;2023-08-17T05:41:40;4.17;;;3.10;;
15633;SDS011;14654;48.898;8.308;2023-08-17T05:44:06;4.63;;;2.87;;
15633;SDS011;14654;48.898;8.308;2023-08-17T05:46:34;3.30;;;2.53;;
15633;SDS011;14654;48.898;8.308;2023-08-17T05:49:00;3.43;;;2.80;;
15633;SDS011;14654;48.898;8.308;2023-08-17T05:51:26;3.03;;;2.70;;
15633;SDS011;14654;48.898;8.308;2023-08-17T05:53:52;3.37;;;2.97;;
15633;SDS011;14654;48.898;8.308;2023-08-17T05:56:17;3.80;;;3.40;;
15633;SDS011;14654;48.898;8.308;2023-08-17T05:58:42;7.30;;;4.17;;
15633;SDS011;14654;48.898;8.308;2023-08-17T06:01:08;4.40;;;4.00;;
15633;SDS011;14654;48.898;8.308;2023-08-17T06:03:35;6.30;;;4.03;;
15633;SDS011;14654;48.898;8.308;2023-08-17T06:06:02;4.77;;;4.27;;
15633;SDS011;14654;48.898;8.308;2023-08-17T06:08:27;5.97;;;3.70;;
15633;SDS011;14654;48.898;8.308;2023-08-17T06:10:53;4.67;;;4.03;;
15633;SDS011;14654;48.898;8.308;2023-08-17T06:13:18;4.53;;;3.37;;
15633;SDS011;14654;48.898;8.308;2023-08-17T06:15:43;5.83;;;4.03;;
15633;SDS011;14654;48.898;8.308;2023-08-17T06:18:09;3.63;;;3.30;;
15633;SDS011;14654;48.898;8.308;2023-08-17T06:20:34;3.50;;;3.17;;
15633;SDS011;14654;48.898;8.308;2023-08-17T06:22:59;6.40;;;4.90;;
15633;SDS011;14654;48.898;8.308;2023-08-17T06:25:25;5.87;;;4.50;;
15633;SDS011;14654;48.898;8.308;2023-08-17T06:27:51;6.33;;;4.60;;
15633;SDS011;14654;48.898;8.308;2023-08-17T06:30:16;7.40;;;5.23;;
15633;SDS011;14654;48.898;8.308;2023-08-17T06:32:42;7.93;;;4.97;;
15633;SDS011;14654;48.898;8.308;2023-08-17T06:35:07;6.27;;;5.77;;
15633;SDS011;14654;48.898;8.308;2023-08-17T06:37:33;5.80;;;4.67;;
15633;SDS011;14654;48.898;8.308;2023-08-17T06:39:58;5.33;;;4.40;;
15633;SDS011;14654;48.898;8.308;2023-08-17T06:42:23;4.80;;;4.20;;
15633;SDS011;14654;48.898;8.308;2023-08-17T06:44:49;3.80;;;3.50;;
15633;SDS011;14654;48.898;8.308;2023-08-17T06:47:14;6.60;;;5.70;;
15633;SDS011;14654;48.898;8.308;2023-08-17T06:49:39;4.90;;;4.40;;
15633;SDS011;14654;48.898;8.308;2023-08-17T06:52:05;6.17;;;5.57;;
15633;SDS011;14654;48.898;8.308;2023-08-17T06:54:30;6.17;;;4.77;;
15633;SDS011;14654;48.898;8.308;2023-08-17T06:56:57;7.53;;;5.10;;
15633;SDS011;14654;48.898;8.308;2023-08-17T06:59:22;5.97;;;4.83;;
15633;SDS011;14654;48.898;8.308;2023-08-17T07:01:48;9.30;;;6.10;;
15633;SDS011;14654;48.898;8.308;2023-08-17T07:04:14;8.57;;;6.10;;
15633;SDS011;14654;48.898;8.308;2023-08-17T07:06:39;8.83;;;6.90;;
15633;SDS011;14654;48.898;8.308;2023-08-17T07:09:06;9.40;;;8.10;;
15633;SDS011;14654;48.898;8.308;2023-08-17T07:11:31;7.67;;;6.27;;
15633;SDS011;14654;48.898;8.308;2023-08-17T07:13:56;9.13;;;6.87;;
15633;SDS011;14654;48.898;8.308;2023-08-17T07:16:22;7.83;;;6.37;;
15633;SDS011;14654;48.898;8.308;2023-08-17T07:18:47;7.07;;;6.30;;
15633;SDS011;14654;48.898;8.308;2023-08-17T07:21:13;6.70;;;5.97;;
15633;SDS011;14654;48.898;8.308;2023-08-17T07:23:38;10.80;;;6.97;;
15633;SDS011;14654;48.898;8.308;2023-08-17T07:26:03;13.03;;;7.73;;
15633;SDS011;14654;48.898;8.308;2023-08-17T07:28:28;11.37;;;7.57;;
15633;SDS011;14654;48.898;8.308;2023-08-17T07:30:54;11.90;;;7.70;;
15633;SDS011;14654;48.898;8.308;2023-08-17T07:33:19;13.17;;;7.50;;
15633;SDS011;14654;48.898;8.308;2023-08-17T07:35:45;8.40;;;7.60;;
15633;SDS011;14654;48.898;8.308;2023-08-17T07:38:10;8.63;;;7.27;;
15633;SDS011;14654;48.898;8.308;2023-08-17T07:40:35;11.03;;;8.23;;
15633;SDS011;14654;48.898;8.308;2023-08-17T07:43:01;10.80;;;8.10;;
15633;SDS011;14654;48.898;8.308;2023-08-17T07:45:26;8.33;;;7.30;;
15633;SDS011;14654;48.898;8.308;2023-08-17T07:47:52;10.03;;;7.07;;
15633;SDS011;14654;48.898;8.308;2023-08-17T07:50:17;7.20;;;6.53;;
15633;SDS011;14654;48.898;8.308;2023-08-17T07:52:43;8.03;;;6.10;;
15633;SDS011;14654;48.898;8.308;2023-08-17T07:55:08;10.60;;;8.50;;
15633;SDS011;14654;48.898;8.308;2023-08-17T07:57:34;11.93;;;8.50;;
15633;SDS011;14654;48.898;8.308;2023-08-17T07:59:59;11.20;;;8.30;;
15633;SDS011;14654;48.898;8.308;2023-08-17T08:02:24;8.83;;;7.87;;
15633;SDS011;14654;48.898;8.308;2023-08-17T08:04:50;12.63;;;7.97;;
15633;SDS011;14654;48.898;8.308;2023-08-17T08:07:15;10.23;;;7.53;;
15633;SDS011;14654;48.898;8.308;2023-08-17T08:09:40;9.37;;;7.97;;
15633;SDS011;14654;48.898;8.308;2023-08-17T08:12:06;11.60;;;8.03;;
15633;SDS011;14654;48.898;8.308;2023-08-17T08:14:33;7.97;;;7.00;;
15633;SDS011;14654;48.898;8.308;2023-08-17T08:16:58;9.23;;;6.83;;
15633;SDS011;14654;48.898;8.308;2023-08-17T08:19:24;8.53;;;7.03;;
15633;SDS011;14654;48.898;8.308;2023-08-17T08:21:49;10.57;;;7.70;;
15633;SDS011;14654;48.898;8.308;2023-08-17T08:24:14;7.20;;;5.90;;
15633;SDS011;14654;48.898;8.308;2023-08-17T08:26:39;8.20;;;7.33;;
15633;SDS011;14654;48.898;8.308;2023-08-17T08:29:05;7.63;;;6.53;;
15633;SDS011;14654;48.898;8.308;2023-08-17T08:31:30;9.60;;;8.00;;
15633;SDS011;14654;48.898;8.308;2023-08-17T08:33:55;7.53;;;6.83;;
15633;SDS011;14654;48.898;8.308;2023-08-17T08:36:21;10.40;;;7.13;;
15633;SDS011;14654;48.898;8.308;2023-08-17T08:38:46;8.13;;;7.33;;
15633;SDS011;14654;48.898;8.308;2023-08-17T08:41:11;8.90;;;7.33;;
15633;SDS011;14654;48.898;8.308;2023-08-17T08:43:37;6.50;;;5.90;;
15633;SDS011;14654;48.898;8.308;2023-08-17T08:46:03;6.93;;;6.20;;
15633;SDS011;14654;48.898;8.308;2023-08-17T08:48:29;9.23;;;7.13;;
15633;SDS011;14654;48.898;8.308;2023-08-17T08:50:56;8.20;;;7.37;;
15633;SDS011;14654;48.898;8.308;2023-08-17T08:53:31;8.33;;;7.50;;
15633;SDS011;14654;48.898;8.308;2023-08-17T08:56:02;7.10;;;6.50;;
15633;SDS011;14654;48.898;8.308;2023-08-17T08:58:29;9.37;;;7.70;;
15633;SDS011;14654;48.898;8.308;2023-08-17T09:00:56;9.70;;;8.03;;
15633;SDS011;14654;48.898;8.308;2023-08-17T09:03:22;9.13;;;7.63;;
15633;SDS011;14654;48.898;8.308;2023-08-17T09:05:50;7.97;;;7.17;;
15633;SDS011;14654;48.898;8.308;2023-08-17T09:08:20;8.83;;;8.03;;
15633;SDS011;14654;48.898;8.308;2023-08-17T09:10:46;8.40;;;7.70;;
15633;SDS011;14654;48.898;8.308;2023-08-17T09:13:12;8.10;;;7.30;;
15633;SDS011;14654;48.898;8.308;2023-08-17T09:15:37;8.30;;;7.60;;
15633;SDS011;14654;48.898;8.308;2023-08-17T09:18:04;8.47;;;7.67;;
15633;SDS011;14654;48.898;8.308;2023-08-17T09:23:14;8.73;;;7.40;;
15633;SDS011;14654;48.898;8.308;2023-08-17T09:25:42;9.70;;;7.60;;
15633;SDS011;14654;48.898;8.308;2023-08-17T09:28:10;7.83;;;7.03;;
15633;SDS011;14654;48.898;8.308;2023-08-17T09:30:53;8.67;;;7.97;;
15633;SDS011;14654;48.898;8.308;2023-08-17T09:33:26;8.77;;;8.07;;
15633;SDS011;14654;48.898;8.308;2023-08-17T09:35:54;7.70;;;7.00;;
15633;SDS011;14654;48.898;8.308;2023-08-17T09:38:20;8.97;;;8.07;;
15633;SDS011;14654;48.898;8.308;2023-08-17T09:40:46;6.50;;;5.70;;
15633;SDS011;14654;48.898;8.308;2023-08-17T09:43:13;10.57;;;8.40;;
15633;SDS011;14654;48.898;8.308;2023-08-17T09:45:39;6.60;;;6.03;;
15633;SDS011;14654;48.898;8.308;2023-08-17T09:48:06;8.53;;;7.67;;
15633;SDS011;14654;48.898;8.308;2023-08-17T09:50:33;8.87;;;8.07;;
15633;SDS011;14654;48.898;8.308;2023-08-17T09:52:58;8.87;;;8.07;;
15633;SDS011;14654;48.898;8.308;2023-08-17T09:55:24;6.97;;;6.30;;
15633;SDS011;14654;48.898;8.308;2023-08-17T09:57:50;6.30;;;5.80;;
15633;SDS011;14654;48.898;8.308;2023-08-17T10:00:17;6.90;;;6.37;;
15633;SDS011;14654;48.898;8.308;2023-08-17T10:02:49;6.73;;;5.77;;
15633;SDS011;14654;48.898;8.308;2023-08-17T10:05:16;5.37;;;4.97;;
15633;SDS011;14654;48.898;8.308;2023-08-17T10:07:46;6.27;;;5.77;;
15633;SDS011;14654;48.898;8.308;2023-08-17T10:10:15;5.63;;;5.23;;
15633;SDS011;14654;48.898;8.308;2023-08-17T10:15:29;5.70;;;5.20;;
15633;SDS011;14654;48.898;8.308;2023-08-17T10:20:57;5.60;;;5.07;;
15633;SDS011;14654;48.898;8.308;2023-08-17T10:23:27;5.53;;;4.73;;
15633;SDS011;14654;48.898;8.308;2023-08-17T10:25:53;5.90;;;5.40;;
15633;SDS011;14654;48.898;8.308;2023-08-17T10:28:19;4.90;;;4.50;;
15633;SDS011;14654;48.898;8.308;2023-08-17T10:30:46;5.20;;;4.80;;
15633;SDS011;14654;48.898;8.308;2023-08-17T10:33:13;4.77;;;4.37;;
15633;SDS011;14654;48.898;8.308;2023-08-17T10:35:40;5.67;;;5.17;;
15633;SDS011;14654;48.898;8.308;2023-08-17T10:38:06;5.23;;;4.83;;
15633;SDS011;14654;48.898;8.308;2023-08-17T10:40:36;6.07;;;5.67;;
15633;SDS011;14654;48.898;8.308;2023-08-17T10:43:02;5.80;;;5.30;;
15633;SDS011;14654;48.898;8.308;2023-08-17T10:45:28;5.53;;;5.07;;
15633;SDS011;14654;48.898;8.308;2023-08-17T10:50:33;5.23;;;4.83;;
15633;SDS011;14654;48.898;8.308;2023-08-17T10:53:10;5.67;;;5.27;;
15633;SDS011;14654;48.898;8.308;2023-08-17T10:55:38;5.83;;;5.40;;
15633;SDS011;14654;48.898;8.308;2023-08-17T10:58:07;5.70;;;5.30;;
15633;SDS011;14654;48.898;8.308;2023-08-17T11:00:34;4.80;;;4.40;;
15633;SDS011;14654;48.898;8.308;2023-08-17T11:03:05;5.07;;;4.67;;
15633;SDS011;14654;48.898;8.308;2023-08-17T11:08:34;7.07;;;6.47;;
15633;SDS011;14654;48.898;8.308;2023-08-17T11:11:10;5.70;;;5.20;;
15633;SDS011;14654;48.898;8.308;2023-08-17T11:13:37;6.30;;;5.73;;
15633;SDS011;14654;48.898;8.308;2023-08-17T11:16:04;6.30;;;5.70;;
15633;SDS011;14654;48.898;8.308;2023-08-17T11:18:31;6.60;;;6.00;;
15633;SDS011;14654;48.898;8.308;2023-08-17T11:20:57;7.67;;;6.70;;
15633;SDS011;14654;48.898;8.308;2023-08-17T11:23:22;8.67;;;7.00;;
15633;SDS011;14654;48.898;8.308;2023-08-17T11:25:49;6.80;;;6.20;;
15633;SDS011;14654;48.898;8.308;2023-08-17T11:28:16;7.23;;;6.53;;
15633;SDS011;14654;48.898;8.308;2023-08-17T11:30:42;6.57;;;5.97;;
15633;SDS011;14654;48.898;8.308;2023-08-17T11:33:09;6.23;;;5.73;;
15633;SDS011;14654;48.898;8.308;2023-08-17T11:35:35;7.83;;;7.13;;
15633;SDS011;14654;48.898;8.308;2023-08-17T11:38:02;6.70;;;6.20;;
15633;SDS011;14654;48.898;8.308;2023-08-17T11:40:28;7.10;;;6.50;;
15633;SDS011;14654;48.898;8.308;2023-08-17T11:42:54;6.27;;;5.67;;
15633;SDS011;14654;48.898;8.308;2023-08-17T11:45:20;5.80;;;5.30;;
15633;SDS011;14654;48.898;8.308;2023-08-17T11:47:46;6.73;;;6.17;;
15633;SDS011;14654;48.898;8.308;2023-08-17T11:50:13;6.63;;;6.03;;
15633;SDS011;14654;48.898;8.308;2023-08-17T11:52:39;8.53;;;7.73;;
15633;SDS011;14654;48.898;8.308;2023-08-17T11:55:07;7.40;;;6.90;;
15633;SDS011;14654;48.898;8.308;2023-08-17T11:57:37;8.63;;;7.83;;
15633;SDS011;14654;48.898;8.308;2023-08-17T12:00:03;9.07;;;8.10;;
15633;SDS011;14654;48.898;8.308;2023-08-17T12:02:31;8.67;;;7.87;;
15633;SDS011;14654;48.898;8.308;2023-08-17T12:04:57;9.00;;;8.13;;
15633;SDS011;14654;48.898;8.308;2023-08-17T12:07:25;9.27;;;8.37;;
15633;SDS011;14654;48.898;8.308;2023-08-17T12:09:50;9.70;;;8.90;;
15633;SDS011;14654;48.898;8.308;2023-08-17T12:12:18;9.97;;;9.00;;
15633;SDS011;14654;48.898;8.308;2023-08-17T12:14:46;9.50;;;8.60;;
15633;SDS011;14654;48.898;8.308;2023-08-17T12:17:15;8.87;;;8.17;;
15633;SDS011;14654;48.898;8.308;2023-08-17T12:19:42;9.93;;;9.03;;
15633;SDS011;14654;48.898;8.308;2023-08-17T12:22:08;9.50;;;8.70;;
15633;SDS011;14654;48.898;8.308;2023-08-17T12:24:33;8.43;;;7.63;;
15633;SDS011;14654;48.898;8.308;2023-08-17T12:27:01;7.97;;;7.37;;
15633;SDS011;14654;48.898;8.308;2023-08-17T12:29:27;7.80;;;7.20;;
15633;SDS011;14654;48.898;8.308;2023-08-17T12:31:53;8.70;;;7.80;;
15633;SDS011;14654;48.898;8.308;2023-08-17T12:34:18;7.93;;;7.23;;
15633;SDS011;14654;48.898;8.308;2023-08-17T12:36:43;7.83;;;7.13;;
15633;SDS011;14654;48.898;8.308;2023-08-17T12:39:09;9.30;;;7.40;;
15633;SDS011;14654;48.898;8.308;2023-08-17T12:41:34;7.40;;;6.70;;
15633;SDS011;14654;48.898;8.308;2023-08-17T12:44:00;7.70;;;7.07;;
15633;SDS011;14654;48.898;8.308;2023-08-17T12:46:26;8.67;;;7.97;;
15633;SDS011;14654;48.898;8.308;2023-08-17T12:48:51;7.90;;;7.20;;
15633;SDS011;14654;48.898;8.308;2023-08-17T12:51:17;7.80;;;7.20;;
15633;SDS011;14654;48.898;8.308;2023-08-17T12:53:42;8.93;;;8.13;;
15633;SDS011;14654;48.898;8.308;2023-08-17T12:56:07;10.93;;;7.90;;
15633;SDS011;14654;48.898;8.308;2023-08-17T12:58:33;8.90;;;7.70;;
15633;SDS011;14654;48.898;8.308;2023-08-17T13:00:58;7.20;;;6.50;;
15633;SDS011;14654;48.898;8.308;2023-08-17T13:03:24;8.07;;;7.30;;
15633;SDS011;14654;48.898;8.308;2023-08-17T13:05:49;8.57;;;7.73;;
15633;SDS011;14654;48.898;8.308;2023-08-17T13:08:15;8.13;;;7.43;;
15633;SDS011;14654;48.898;8.308;2023-08-17T13:10:40;7.73;;;7.13;;
15633;SDS011;14654;48.898;8.308;2023-08-17T13:13:06;8.10;;;7.40;;
15633;SDS011;14654;48.898;8.308;2023-08-17T13:15:32;8.13;;;7.27;;
15633;SDS011;14654;48.898;8.308;2023-08-17T13:17:58;8.10;;;7.30;;
15633;SDS011;14654;48.898;8.308;2023-08-17T13:20:24;7.43;;;6.83;;
15633;SDS011;14654;48.898;8.308;2023-08-17T13:22:49;10.50;;;9.43;;
15633;SDS011;14654;48.898;8.308;2023-08-17T13:25:15;10.13;;;9.33;;
15633;SDS011;14654;48.898;8.308;2023-08-17T13:27:40;8.53;;;7.73;;
15633;SDS011;14654;48.898;8.308;2023-08-17T13:30:06;8.50;;;7.70;;
15633;SDS011;14654;48.898;8.308;2023-08-17T13:32:32;13.00;;;7.97;;
15633;SDS011;14654;48.898;8.308;2023-08-17T13:34:57;7.70;;;6.80;;
15633;SDS011;14654;48.898;8.308;2023-08-17T13:37:22;8.10;;;7.23;;
15633;SDS011;14654;48.898;8.308;2023-08-17T13:39:48;7.57;;;6.97;;
15633;SDS011;14654;48.898;8.308;2023-08-17T13:42:13;9.40;;;7.17;;
15633;SDS011;14654;48.898;8.308;2023-08-17T13:44:39;12.63;;;7.47;;
15633;SDS011;14654;48.898;8.308;2023-08-17T13:47:04;7.70;;;6.93;;
15633;SDS011;14654;48.898;8.308;2023-08-17T13:49:30;7.73;;;6.90;;
15633;SDS011;14654;48.898;8.308;2023-08-17T13:51:55;8.27;;;7.43;;
15633;SDS011;14654;48.898;8.308;2023-08-17T13:54:21;10.50;;;8.00;;
15633;SDS011;14654;48.898;8.308;2023-08-17T13:56:47;7.90;;;7.20;;
15633;SDS011;14654;48.898;8.308;2023-08-17T13:59:13;7.67;;;6.97;;
15633;SDS011;14654;48.898;8.308;2023-08-17T14:01:38;7.87;;;7.00;;
15633;SDS011;14654;48.898;8.308;2023-08-17T14:04:03;7.83;;;7.10;;
15633;SDS011;14654;48.898;8.308;2023-08-17T14:06:32;7.33;;;6.60;;
15633;SDS011;14654;48.898;8.308;2023-08-17T14:08:57;7.77;;;6.87;;
15633;SDS011;14654;48.898;8.308;2023-08-17T14:11:22;8.40;;;7.00;;
15633;SDS011;14654;48.898;8.308;2023-08-17T14:13:48;6.60;;;6.00;;
15633;SDS011;14654;48.898;8.308;2023-08-17T14:16:13;6.80;;;6.18;;
15633;SDS011;14654;48.898;8.308;2023-08-17T14:18:38;7.13;;;6.53;;
15633;SDS011;14654;48.898;8.308;2023-08-17T14:21:07;6.70;;;6.10;;
15633;SDS011;14654;48.898;8.308;2023-08-17T14:23:32;6.77;;;6.17;;
15633;SDS011;14654;48.898;8.308;2023-08-17T14:25:57;7.23;;;6.63;;
15633;SDS011;14654;48.898;8.308;2023-08-17T14:28:23;9.23;;;6.80;;
15633;SDS011;14654;48.898;8.308;2023-08-17T14:30:48;6.27;;;5.77;;
15633;SDS011;14654;48.898;8.308;2023-08-17T14:33:13;6.80;;;6.10;;
15633;SDS011;14654;48.898;8.308;2023-08-17T14:35:40;7.20;;;6.13;;
15633;SDS011;14654;48.898;8.308;2023-08-17T14:38:08;6.53;;;6.03;;
15633;SDS011;14654;48.898;8.308;2023-08-17T14:40:38;6.43;;;5.93;;
15633;SDS011;14654;48.898;8.308;2023-08-17T14:43:03;6.73;;;6.20;;
15633;SDS011;14654;48.898;8.308;2023-08-17T14:45:28;5.77;;;5.33;;
15633;SDS011;14654;48.898;8.308;2023-08-17T14:47:54;6.20;;;5.70;;
15633;SDS011;14654;48.898;8.308;2023-08-17T14:50:22;6.27;;;5.67;;
15633;SDS011;14654;48.898;8.308;2023-08-17T14:52:48;6.43;;;5.87;;
15633;SDS011;14654;48.898;8.308;2023-08-17T14:55:13;6.13;;;5.63;;
15633;SDS011;14654;48.898;8.308;2023-08-17T14:57:38;8.93;;;6.50;;